sensor_id;sensor_type;location;lat;lon;timestamp;pressure;altitude;pressure_sealevel;temperature;humidity
80186;BME280;69904;52.122;5.422;2023-10-19T00:00:36;99331.44;;;10.44;89.46
80186;BME280;69904;52.122;5.422;2023-10-19T00:03:06;99330.50;;;10.50;89.79
80186;BME280;69904;52.122;5.422;2023-10-19T00:05:33;99321.81;;;10.48;89.54
80186;BME280;69904;52.122;5.422;2023-10-19T00:08:01;99317.00;;;10.50;89.67
80186;BME280;69904;52.122;5.422;2023-10-19T00:10:31;99316.31;;;10.55;89.79
80186;BME280;69904;52.122;5.422;2023-10-19T00:13:04;99317.13;;;10.55;89.75
80186;BME280;69904;52.122;5.422;2023-10-19T00:15:32;99313.00;;;10.53;90.15
80186;BME280;69904;52.122;5.422;2023-10-19T00:18:00;99315.47;;;10.54;90.33
80186;BME280;69904;52.122;5.422;2023-10-19T00:20:49;99304.47;;;10.56;90.19
80186;BME280;69904;52.122;5.422;2023-10-19T00:23:23;99299.63;;;10.58;90.21
80186;BME280;69904;52.122;5.422;2023-10-19T00:25:57;99303.41;;;10.57;90.31
80186;BME280;69904;52.122;5.422;2023-10-19T00:28:24;99305.84;;;10.59;90.79
80186;BME280;69904;52.122;5.422;2023-10-19T00:30:54;99306.94;;;10.58;90.82
80186;BME280;69904;52.122;5.422;2023-10-19T00:33:29;99310.19;;;10.60;90.78
80186;BME280;69904;52.122;5.422;2023-10-19T00:35:59;99300.72;;;10.57;91.12
80186;BME280;69904;52.122;5.422;2023-10-19T00:38:33;99306.69;;;10.59;91.14
80186;BME280;69904;52.122;5.422;2023-10-19T00:41:02;99306.22;;;10.62;91.40
80186;BME280;69904;52.122;5.422;2023-10-19T00:43:34;99295.78;;;10.66;91.55
80186;BME280;69904;52.122;5.422;2023-10-19T00:46:11;99306.56;;;10.66;91.10
80186;BME280;69904;52.122;5.422;2023-10-19T00:48:55;99296.59;;;10.66;91.28
80186;BME280;69904;52.122;5.422;2023-10-19T00:51:40;99294.50;;;10.68;91.51
80186;BME280;69904;52.122;5.422;2023-10-19T00:54:20;99294.50;;;10.68;91.93
80186;BME280;69904;52.122;5.422;2023-10-19T00:57:03;99288.84;;;10.70;91.73
80186;BME280;69904;52.122;5.422;2023-10-19T00:59:34;99285.91;;;10.71;91.78
80186;BME280;69904;52.122;5.422;2023-10-19T01:02:14;99286.75;;;10.72;91.94
80186;BME280;69904;52.122;5.422;2023-10-19T01:04:51;99281.34;;;10.72;91.98
80186;BME280;69904;52.122;5.422;2023-10-19T01:07:28;99278.16;;;10.75;92.42
80186;BME280;69904;52.122;5.422;2023-10-19T01:09:57;99275.22;;;10.76;92.33
80186;BME280;69904;52.122;5.422;2023-10-19T01:12:26;99281.22;;;10.78;92.22
80186;BME280;69904;52.122;5.422;2023-10-19T01:17:34;99281.34;;;10.83;92.67
80186;BME280;69904;52.122;5.422;2023-10-19T01:20:08;99274.88;;;10.84;92.74
80186;BME280;69904;52.122;5.422;2023-10-19T01:22:50;99272.97;;;10.85;93.05
80186;BME280;69904;52.122;5.422;2023-10-19T01:25:20;99273.56;;;10.87;92.85
80186;BME280;69904;52.122;5.422;2023-10-19T01:27:52;99276.88;;;10.89;93.37
80186;BME280;69904;52.122;5.422;2023-10-19T01:30:24;99269.34;;;10.91;93.05
80186;BME280;69904;52.122;5.422;2023-10-19T01:32:50;99261.22;;;10.91;93.22
80186;BME280;69904;52.122;5.422;2023-10-19T01:35:18;99261.00;;;10.92;93.69
80186;BME280;69904;52.122;5.422;2023-10-19T01:37:44;99263.47;;;10.94;93.56
80186;BME280;69904;52.122;5.422;2023-10-19T01:40:11;99260.28;;;10.97;93.52
80186;BME280;69904;52.122;5.422;2023-10-19T01:42:42;99252.19;;;10.97;93.88
80186;BME280;69904;52.122;5.422;2023-10-19T01:45:08;99256.31;;;11.00;93.67
80186;BME280;69904;52.122;5.422;2023-10-19T01:47:37;99247.13;;;11.01;93.74
80186;BME280;69904;52.122;5.422;2023-10-19T01:50:07;99252.28;;;11.02;93.80
80186;BME280;69904;52.122;5.422;2023-10-19T01:52:46;99260.97;;;11.04;94.38
80186;BME280;69904;52.122;5.422;2023-10-19T01:55:12;99235.63;;;11.05;94.46
80186;BME280;69904;52.122;5.422;2023-10-19T01:57:39;99254.25;;;11.07;94.44
80186;BME280;69904;52.122;5.422;2023-10-19T02:00:06;99237.59;;;11.10;94.90
80186;BME280;69904;52.122;5.422;2023-10-19T02:02:36;99248.16;;;11.11;94.70
80186;BME280;69904;52.122;5.422;2023-10-19T02:05:03;99243.94;;;11.15;95.09
80186;BME280;69904;52.122;5.422;2023-10-19T02:07:35;99233.69;;;11.17;95.16
80186;BME280;69904;52.122;5.422;2023-10-19T02:10:02;99239.44;;;11.21;95.52
80186;BME280;69904;52.122;5.422;2023-10-19T02:12:30;99241.41;;;11.25;95.30
80186;BME280;69904;52.122;5.422;2023-10-19T02:14:56;99230.72;;;11.30;95.57
80186;BME280;69904;52.122;5.422;2023-10-19T02:17:22;99237.84;;;11.36;95.94
80186;BME280;69904;52.122;5.422;2023-10-19T02:19:50;99247.09;;;11.40;96.33
80186;BME280;69904;52.122;5.422;2023-10-19T02:22:16;99232.03;;;11.45;96.55
80186;BME280;69904;52.122;5.422;2023-10-19T02:24:43;99233.19;;;11.49;96.58
80186;BME280;69904;52.122;5.422;2023-10-19T02:27:10;99232.72;;;11.52;96.92
80186;BME280;69904;52.122;5.422;2023-10-19T02:29:44;99240.34;;;11.55;96.80
80186;BME280;69904;52.122;5.422;2023-10-19T02:32:13;99235.50;;;11.57;97.02
80186;BME280;69904;52.122;5.422;2023-10-19T02:34:40;99238.53;;;11.60;96.97
80186;BME280;69904;52.122;5.422;2023-10-19T02:37:07;99241.25;;;11.60;97.19
80186;BME280;69904;52.122;5.422;2023-10-19T02:39:34;99235.84;;;11.60;97.39
80186;BME280;69904;52.122;5.422;2023-10-19T02:42:00;99232.91;;;11.62;97.31
80186;BME280;69904;52.122;5.422;2023-10-19T02:44:28;99236.19;;;11.64;97.54
80186;BME280;69904;52.122;5.422;2023-10-19T02:46:57;99234.31;;;11.64;97.45
80186;BME280;69904;52.122;5.422;2023-10-19T02:49:32;99226.84;;;11.71;97.86
80186;BME280;69904;52.122;5.422;2023-10-19T02:51:58;99219.69;;;11.77;97.92
80186;BME280;69904;52.122;5.422;2023-10-19T02:54:31;99225.66;;;11.79;97.80
80186;BME280;69904;52.122;5.422;2023-10-19T02:57:00;99223.28;;;11.82;97.97
80186;BME280;69904;52.122;5.422;2023-10-19T02:59:27;99224.69;;;11.85;98.20
80186;BME280;69904;52.122;5.422;2023-10-19T03:01:59;99224.19;;;11.88;98.32
80186;BME280;69904;52.122;5.422;2023-10-19T03:04:39;99228.84;;;11.93;98.49
80186;BME280;69904;52.122;5.422;2023-10-19T03:07:06;99222.38;;;11.94;98.50
80186;BME280;69904;52.122;5.422;2023-10-19T03:09:33;99219.69;;;11.94;98.39
80186;BME280;69904;52.122;5.422;2023-10-19T03:12:03;99218.03;;;11.93;98.48
80186;BME280;69904;52.122;5.422;2023-10-19T03:14:32;99225.91;;;11.94;98.57
80186;BME280;69904;52.122;5.422;2023-10-19T03:16:59;99224.03;;;11.95;98.73
80186;BME280;69904;52.122;5.422;2023-10-19T03:19:27;99218.13;;;11.98;98.65
80186;BME280;69904;52.122;5.422;2023-10-19T03:21:54;99219.75;;;11.99;98.56
80186;BME280;69904;52.122;5.422;2023-10-19T03:24:22;99211.41;;;12.00;98.70
80186;BME280;69904;52.122;5.422;2023-10-19T03:27:12;99211.19;;;12.02;99.13
80186;BME280;69904;52.122;5.422;2023-10-19T03:29:40;99212.31;;;12.06;98.63
80186;BME280;69904;52.122;5.422;2023-10-19T03:32:06;99212.31;;;12.06;99.37
80186;BME280;69904;52.122;5.422;2023-10-19T03:34:34;99198.78;;;12.06;99.06
80186;BME280;69904;52.122;5.422;2023-10-19T03:37:05;99202.06;;;12.08;98.91
80186;BME280;69904;52.122;5.422;2023-10-19T03:39:33;99196.41;;;12.09;99.22
80186;BME280;69904;52.122;5.422;2023-10-19T03:42:00;99199.94;;;12.10;99.00
80186;BME280;69904;52.122;5.422;2023-10-19T03:44:27;99192.41;;;12.12;99.29
80186;BME280;69904;52.122;5.422;2023-10-19T03:47:05;99197.53;;;12.13;99.30
80186;BME280;69904;52.122;5.422;2023-10-19T03:49:32;99197.31;;;12.15;99.56
80186;BME280;69904;52.122;5.422;2023-10-19T03:52:02;99202.47;;;12.16;99.53
80186;BME280;69904;52.122;5.422;2023-10-19T03:54:34;99188.44;;;12.19;99.73
80186;BME280;69904;52.122;5.422;2023-10-19T03:57:07;99191.13;;;12.19;99.79
80186;BME280;69904;52.122;5.422;2023-10-19T03:59:47;99184.44;;;12.22;99.56
80186;BME280;69904;52.122;5.422;2023-10-19T04:02:16;99179.84;;;12.22;99.72
80186;BME280;69904;52.122;5.422;2023-10-19T04:04:48;99185.81;;;12.24;99.59
80186;BME280;69904;52.122;5.422;2023-10-19T04:07:16;99186.38;;;12.27;99.85
80186;BME280;69904;52.122;5.422;2023-10-19T04:09:49;99185.06;;;12.29;99.76
80186;BME280;69904;52.122;5.422;2023-10-19T04:12:35;99180.47;;;12.30;100.00
80186;BME280;69904;52.122;5.422;2023-10-19T04:15:06;99184.34;;;12.34;99.99
80186;BME280;69904;52.122;5.422;2023-10-19T04:17:47;99176.75;;;12.36;100.00
80186;BME280;69904;52.122;5.422;2023-10-19T04:20:16;99174.63;;;12.38;99.82
80186;BME280;69904;52.122;5.422;2023-10-19T04:22:43;99174.13;;;12.41;100.00
80186;BME280;69904;52.122;5.422;2023-10-19T04:25:10;99168.22;;;12.44;100.00
80186;BME280;69904;52.122;5.422;2023-10-19T04:27:39;99157.13;;;12.45;100.00
80186;BME280;69904;52.122;5.422;2023-10-19T04:30:12;99169.66;;;12.51;99.99
80186;BME280;69904;52.122;5.422;2023-10-19T04:32:42;99168.84;;;12.51;99.84
80186;BME280;69904;52.122;5.422;2023-10-19T04:35:10;99167.47;;;12.48;99.91
80186;BME280;69904;52.122;5.422;2023-10-19T04:37:39;99183.94;;;12.47;99.80
80186;BME280;69904;52.122;5.422;2023-10-19T04:40:10;99176.66;;;12.47;100.00
80186;BME280;69904;52.122;5.422;2023-10-19T04:42:38;99185.84;;;12.46;99.94
80186;BME280;69904;52.122;5.422;2023-10-19T04:45:04;99183.66;;;12.43;99.71
80186;BME280;69904;52.122;5.422;2023-10-19T04:47:32;99186.59;;;12.42;99.90
80186;BME280;69904;52.122;5.422;2023-10-19T04:50:03;99179.81;;;12.39;99.38
80186;BME280;69904;52.122;5.422;2023-10-19T04:52:29;99177.09;;;12.39;99.63
80186;BME280;69904;52.122;5.422;2023-10-19T04:54:57;99181.41;;;12.40;99.58
80186;BME280;69904;52.122;5.422;2023-10-19T04:57:24;99185.28;;;12.44;99.62
80186;BME280;69904;52.122;5.422;2023-10-19T04:59:50;99188.53;;;12.46;99.65
80186;BME280;69904;52.122;5.422;2023-10-19T05:02:17;99185.59;;;12.48;99.37
80186;BME280;69904;52.122;5.422;2023-10-19T05:04:44;99181.81;;;12.49;99.43
80186;BME280;69904;52.122;5.422;2023-10-19T05:07:11;99189.94;;;12.49;99.11
80186;BME280;69904;52.122;5.422;2023-10-19T05:09:38;99186.72;;;12.52;99.42
80186;BME280;69904;52.122;5.422;2023-10-19T05:12:06;99193.78;;;12.53;99.31
80186;BME280;69904;52.122;5.422;2023-10-19T05:14:36;99198.94;;;12.54;98.95
80186;BME280;69904;52.122;5.422;2023-10-19T05:17:02;99192.22;;;12.57;99.30
80186;BME280;69904;52.122;5.422;2023-10-19T05:19:32;99201.38;;;12.56;99.05
80186;BME280;69904;52.122;5.422;2023-10-19T05:22:02;99208.69;;;12.55;99.19
80186;BME280;69904;52.122;5.422;2023-10-19T05:24:28;99205.19;;;12.55;98.82
80186;BME280;69904;52.122;5.422;2023-10-19T05:26:56;99206.81;;;12.56;98.71
80186;BME280;69904;52.122;5.422;2023-10-19T05:29:23;99209.84;;;12.59;99.08
80186;BME280;69904;52.122;5.422;2023-10-19T05:31:53;99202.84;;;12.63;98.86
80186;BME280;69904;52.122;5.422;2023-10-19T05:34:20;99204.50;;;12.64;98.60
80186;BME280;69904;52.122;5.422;2023-10-19T05:36:47;99208.56;;;12.67;98.87
80186;BME280;69904;52.122;5.422;2023-10-19T05:39:16;99215.88;;;12.66;98.87
80186;BME280;69904;52.122;5.422;2023-10-19T05:41:43;99218.09;;;12.70;98.76
80186;BME280;69904;52.122;5.422;2023-10-19T05:44:10;99224.34;;;12.70;98.60
80186;BME280;69904;52.122;5.422;2023-10-19T05:46:36;99222.44;;;12.71;98.62
80186;BME280;69904;52.122;5.422;2023-10-19T05:49:04;99218.63;;;12.72;98.43
80186;BME280;69904;52.122;5.422;2023-10-19T05:51:32;99219.22;;;12.74;98.74
80186;BME280;69904;52.122;5.422;2023-10-19T05:53:59;99230.28;;;12.72;98.73
80186;BME280;69904;52.122;5.422;2023-10-19T05:56:29;99228.16;;;12.74;98.37
80186;BME280;69904;52.122;5.422;2023-10-19T05:58:57;99226.28;;;12.75;98.65
80186;BME280;69904;52.122;5.422;2023-10-19T06:01:24;99236.28;;;12.74;98.73
80186;BME280;69904;52.122;5.422;2023-10-19T06:03:50;99233.34;;;12.76;98.71
80186;BME280;69904;52.122;5.422;2023-10-19T06:06:19;99229.28;;;12.78;98.60
80186;BME280;69904;52.122;5.422;2023-10-19T06:08:46;99221.44;;;12.77;98.56
80186;BME280;69904;52.122;5.422;2023-10-19T06:11:12;99240.94;;;12.79;98.19
80186;BME280;69904;52.122;5.422;2023-10-19T06:13:39;99236.34;;;12.79;98.38
80186;BME280;69904;52.122;5.422;2023-10-19T06:16:06;99233.66;;;12.79;98.25
80186;BME280;69904;52.122;5.422;2023-10-19T06:18:33;99222.00;;;12.79;98.09
80186;BME280;69904;52.122;5.422;2023-10-19T06:20:59;99228.47;;;12.78;98.31
80186;BME280;69904;52.122;5.422;2023-10-19T06:23:25;99223.06;;;12.78;98.32
80186;BME280;69904;52.122;5.422;2023-10-19T06:25:52;99226.84;;;12.77;98.08
80186;BME280;69904;52.122;5.422;2023-10-19T06:28:19;99233.06;;;12.77;98.38
80186;BME280;69904;52.122;5.422;2023-10-19T06:30:45;99241.75;;;12.79;98.33
80186;BME280;69904;52.122;5.422;2023-10-19T06:33:14;99230.13;;;12.79;98.23
80186;BME280;69904;52.122;5.422;2023-10-19T06:35:41;99224.69;;;12.79;98.24
80186;BME280;69904;52.122;5.422;2023-10-19T06:38:07;99234.97;;;12.77;98.51
80186;BME280;69904;52.122;5.422;2023-10-19T06:40:36;99243.91;;;12.77;98.32
80186;BME280;69904;52.122;5.422;2023-10-19T06:43:03;99241.19;;;12.77;98.53
80186;BME280;69904;52.122;5.422;2023-10-19T06:45:29;99243.91;;;12.77;98.40
80186;BME280;69904;52.122;5.422;2023-10-19T06:47:56;99234.47;;;12.80;98.59
80186;BME280;69904;52.122;5.422;2023-10-19T06:50:24;99244.22;;;12.81;98.46
80186;BME280;69904;52.122;5.422;2023-10-19T06:52:51;99250.19;;;12.83;98.50
80186;BME280;69904;52.122;5.422;2023-10-19T06:55:20;99253.19;;;12.81;98.29
80186;BME280;69904;52.122;5.422;2023-10-19T06:57:48;99264.56;;;12.83;98.50
80186;BME280;69904;52.122;5.422;2023-10-19T07:00:16;99263.25;;;12.86;98.57
80186;BME280;69904;52.122;5.422;2023-10-19T07:02:47;99266.78;;;12.86;98.53
80186;BME280;69904;52.122;5.422;2023-10-19T07:05:14;99267.59;;;12.87;98.45
80186;BME280;69904;52.122;5.422;2023-10-19T07:07:45;99271.69;;;12.89;98.46
80186;BME280;69904;52.122;5.422;2023-10-19T07:10:13;99276.28;;;12.89;98.53
80186;BME280;69904;52.122;5.422;2023-10-19T07:12:43;99272.50;;;12.90;98.58
80186;BME280;69904;52.122;5.422;2023-10-19T07:15:10;99280.38;;;12.91;98.64
80186;BME280;69904;52.122;5.422;2023-10-19T07:17:43;99279.03;;;12.94;98.32
80186;BME280;69904;52.122;5.422;2023-10-19T07:20:11;99280.69;;;12.95;98.62
80186;BME280;69904;52.122;5.422;2023-10-19T07:22:57;99284.22;;;12.95;98.58
80186;BME280;69904;52.122;5.422;2023-10-19T07:25:26;99292.09;;;12.97;98.38
80186;BME280;69904;52.122;5.422;2023-10-19T07:27:53;99282.91;;;12.98;98.20
80186;BME280;69904;52.122;5.422;2023-10-19T07:30:20;99287.22;;;12.99;98.56
80186;BME280;69904;52.122;5.422;2023-10-19T07:32:49;99284.28;;;13.00;98.49
80186;BME280;69904;52.122;5.422;2023-10-19T07:35:21;99282.41;;;13.01;98.35
80186;BME280;69904;52.122;5.422;2023-10-19T07:37:48;99285.69;;;13.03;98.40
80186;BME280;69904;52.122;5.422;2023-10-19T07:40:16;99282.47;;;13.06;98.04
80186;BME280;69904;52.122;5.422;2023-10-19T07:42:45;99283.03;;;13.08;98.19
80186;BME280;69904;52.122;5.422;2023-10-19T07:45:12;99289.00;;;13.10;98.03
80186;BME280;69904;52.122;5.422;2023-10-19T07:47:39;99280.66;;;13.12;98.43
80186;BME280;69904;52.122;5.422;2023-10-19T07:50:11;99283.69;;;13.15;98.26
80186;BME280;69904;52.122;5.422;2023-10-19T07:52:52;99286.97;;;13.17;98.39
80186;BME280;69904;52.122;5.422;2023-10-19T07:55:21;99282.13;;;13.19;97.98
80186;BME280;69904;52.122;5.422;2023-10-19T07:57:50;99289.97;;;13.21;97.84
80186;BME280;69904;52.122;5.422;2023-10-19T08:00:18;99284.56;;;13.21;97.90
80186;BME280;69904;52.122;5.422;2023-10-19T08:02:45;99277.25;;;13.21;98.62
80186;BME280;69904;52.122;5.422;2023-10-19T08:05:15;99289.50;;;13.24;98.10
80186;BME280;69904;52.122;5.422;2023-10-19T08:07:42;99286.78;;;13.24;98.17
80186;BME280;69904;52.122;5.422;2023-10-19T08:10:10;99288.44;;;13.25;98.13
80186;BME280;69904;52.122;5.422;2023-10-19T08:12:38;99288.16;;;13.26;98.22
80186;BME280;69904;52.122;5.422;2023-10-19T08:15:11;99286.84;;;13.29;97.81
80186;BME280;69904;52.122;5.422;2023-10-19T08:17:39;99276.81;;;13.29;97.68
80186;BME280;69904;52.122;5.422;2023-10-19T08:20:07;99276.31;;;13.32;98.03
80186;BME280;69904;52.122;5.422;2023-10-19T08:22:45;99278.78;;;13.34;97.82
80186;BME280;69904;52.122;5.422;2023-10-19T08:25:14;99277.44;;;13.36;97.87
80186;BME280;69904;52.122;5.422;2023-10-19T08:27:42;99276.13;;;13.39;97.79
80186;BME280;69904;52.122;5.422;2023-10-19T08:30:12;99284.78;;;13.41;98.11
80186;BME280;69904;52.122;5.422;2023-10-19T08:32:44;99283.72;;;13.42;98.09
80186;BME280;69904;52.122;5.422;2023-10-19T08:35:15;99286.19;;;13.43;98.11
80186;BME280;69904;52.122;5.422;2023-10-19T08:37:44;99279.69;;;13.44;97.81
80186;BME280;69904;52.122;5.422;2023-10-19T08:40:12;99274.81;;;13.46;97.82
80186;BME280;69904;52.122;5.422;2023-10-19T08:42:42;99275.41;;;13.48;97.84
80186;BME280;69904;52.122;5.422;2023-10-19T08:45:09;99274.09;;;13.51;97.99
80186;BME280;69904;52.122;5.422;2023-10-19T08:47:55;99272.75;;;13.54;97.66
80186;BME280;69904;52.122;5.422;2023-10-19T08:50:27;99265.19;;;13.56;97.96
80186;BME280;69904;52.122;5.422;2023-10-19T08:52:57;99270.91;;;13.59;97.90
80186;BME280;69904;52.122;5.422;2023-10-19T08:55:24;99271.47;;;13.61;97.59
80186;BME280;69904;52.122;5.422;2023-10-19T08:58:10;99273.66;;;13.64;97.64
80186;BME280;69904;52.122;5.422;2023-10-19T09:00:47;99272.06;;;13.68;97.89
80186;BME280;69904;52.122;5.422;2023-10-19T09:03:15;99273.22;;;13.72;97.96
80186;BME280;69904;52.122;5.422;2023-10-19T09:05:43;99270.81;;;13.76;97.71
80186;BME280;69904;52.122;5.422;2023-10-19T09:08:17;99270.84;;;13.81;97.96
80186;BME280;69904;52.122;5.422;2023-10-19T09:10:45;99263.84;;;13.85;97.62
80186;BME280;69904;52.122;5.422;2023-10-19T09:13:12;99271.50;;;13.93;97.34
80186;BME280;69904;52.122;5.422;2023-10-19T09:15:40;99274.31;;;14.03;97.53
80186;BME280;69904;52.122;5.422;2023-10-19T09:18:15;99270.88;;;14.13;97.27
80186;BME280;69904;52.122;5.422;2023-10-19T09:20:44;99259.81;;;14.19;97.25
80186;BME280;69904;52.122;5.422;2023-10-19T09:23:20;99257.66;;;14.26;96.59
80186;BME280;69904;52.122;5.422;2023-10-19T09:25:48;99249.84;;;14.30;96.80
80186;BME280;69904;52.122;5.422;2023-10-19T09:28:16;99259.34;;;14.32;96.70
80186;BME280;69904;52.122;5.422;2023-10-19T09:30:43;99257.50;;;14.38;96.75
80186;BME280;69904;52.122;5.422;2023-10-19T09:33:10;99263.78;;;14.44;96.71
80186;BME280;69904;52.122;5.422;2023-10-19T09:35:40;99270.31;;;14.48;96.51
80186;BME280;69904;52.122;5.422;2023-10-19T09:38:09;99266.84;;;14.52;96.47
80186;BME280;69904;52.122;5.422;2023-10-19T09:40:36;99272.00;;;14.54;96.08
80186;BME280;69904;52.122;5.422;2023-10-19T09:43:05;99260.88;;;14.55;95.99
80186;BME280;69904;52.122;5.422;2023-10-19T09:45:41;99261.16;;;14.59;96.05
80186;BME280;69904;52.122;5.422;2023-10-19T09:48:12;99262.84;;;14.65;95.75
80186;BME280;69904;52.122;5.422;2023-10-19T09:50:54;99257.72;;;14.68;95.69
80186;BME280;69904;52.122;5.422;2023-10-19T09:53:24;99256.94;;;14.73;95.41
80186;BME280;69904;52.122;5.422;2023-10-19T09:55:54;99248.00;;;14.78;95.40
80186;BME280;69904;52.122;5.422;2023-10-19T09:58:54;99248.88;;;14.93;95.17
80186;BME280;69904;52.122;5.422;2023-10-19T10:01:21;99230.78;;;15.29;94.67
80186;BME280;69904;52.122;5.422;2023-10-19T10:03:52;99232.47;;;15.50;94.62
80186;BME280;69904;52.122;5.422;2023-10-19T10:09:18;99230.63;;;15.61;93.10
80186;BME280;69904;52.122;5.422;2023-10-19T10:11:54;99240.41;;;15.52;92.71
80186;BME280;69904;52.122;5.422;2023-10-19T10:14:25;99239.00;;;15.44;92.83
80186;BME280;69904;52.122;5.422;2023-10-19T10:17:03;99234.09;;;15.36;92.58
80186;BME280;69904;52.122;5.422;2023-10-19T10:19:31;99240.59;;;15.30;92.53
80186;BME280;69904;52.122;5.422;2023-10-19T10:22:08;99238.94;;;15.29;92.97
80186;BME280;69904;52.122;5.422;2023-10-19T10:24:42;99242.75;;;15.28;92.70
80186;BME280;69904;52.122;5.422;2023-10-19T10:27:09;99241.41;;;15.31;92.64
80186;BME280;69904;52.122;5.422;2023-10-19T10:29:59;99250.66;;;15.35;92.93
80186;BME280;69904;52.122;5.422;2023-10-19T10:32:50;99248.25;;;15.38;92.46
80186;BME280;69904;52.122;5.422;2023-10-19T10:38:06;99231.94;;;15.43;92.18
80186;BME280;69904;52.122;5.422;2023-10-19T10:40:46;99231.38;;;15.46;92.39
80186;BME280;69904;52.122;5.422;2023-10-19T10:43:14;99230.31;;;15.47;92.39
80186;BME280;69904;52.122;5.422;2023-10-19T10:45:42;99227.84;;;15.46;92.36
80186;BME280;69904;52.122;5.422;2023-10-19T10:48:16;99231.13;;;15.48;92.05
80186;BME280;69904;52.122;5.422;2023-10-19T10:50:43;99219.69;;;15.46;92.00
80186;BME280;69904;52.122;5.422;2023-10-19T10:53:13;99228.13;;;15.44;91.90
80186;BME280;69904;52.122;5.422;2023-10-19T10:55:43;99212.91;;;15.43;92.31
80186;BME280;69904;52.122;5.422;2023-10-19T10:58:15;99214.00;;;15.42;92.26
80186;BME280;69904;52.122;5.422;2023-10-19T11:00:42;99204.47;;;15.45;92.37
80186;BME280;69904;52.122;5.422;2023-10-19T11:03:09;99207.75;;;15.47;92.33
80186;BME280;69904;52.122;5.422;2023-10-19T11:05:37;99202.34;;;15.52;92.36
80186;BME280;69904;52.122;5.422;2023-10-19T11:08:09;99205.88;;;15.57;92.30
80186;BME280;69904;52.122;5.422;2023-10-19T11:10:48;99202.09;;;15.64;91.96
80186;BME280;69904;52.122;5.422;2023-10-19T11:13:22;99203.16;;;15.68;91.85
80186;BME280;69904;52.122;5.422;2023-10-19T11:15:53;99198.00;;;15.71;92.10
80186;BME280;69904;52.122;5.422;2023-10-19T11:21:03;99202.34;;;15.77;92.07
80186;BME280;69904;52.122;5.422;2023-10-19T11:26:05;99208.34;;;15.84;91.74
80186;BME280;69904;52.122;5.422;2023-10-19T11:28:32;99202.66;;;15.86;91.81
80186;BME280;69904;52.122;5.422;2023-10-19T11:31:13;99198.28;;;15.90;91.77
80186;BME280;69904;52.122;5.422;2023-10-19T11:33:41;99191.75;;;15.96;91.59
80186;BME280;69904;52.122;5.422;2023-10-19T11:36:10;99189.56;;;16.03;91.44
80186;BME280;69904;52.122;5.422;2023-10-19T11:38:43;99195.03;;;16.13;91.03
80186;BME280;69904;52.122;5.422;2023-10-19T11:41:10;99201.25;;;16.29;90.29
80186;BME280;69904;52.122;5.422;2023-10-19T11:43:43;99193.56;;;16.46;89.82
80186;BME280;69904;52.122;5.422;2023-10-19T11:46:11;99191.66;;;16.62;89.36
80186;BME280;69904;52.122;5.422;2023-10-19T11:48:39;99196.00;;;16.68;89.14
80186;BME280;69904;52.122;5.422;2023-10-19T11:51:06;99180.16;;;16.80;88.54
80186;BME280;69904;52.122;5.422;2023-10-19T11:53:34;99180.84;;;17.06;88.40
80186;BME280;69904;52.122;5.422;2023-10-19T11:56:02;99178.66;;;17.13;87.69
80186;BME280;69904;52.122;5.422;2023-10-19T11:58:30;99176.78;;;17.08;86.46
80186;BME280;69904;52.122;5.422;2023-10-19T12:00:59;99181.97;;;17.00;85.68
80186;BME280;69904;52.122;5.422;2023-10-19T12:03:25;99176.81;;;16.98;85.52
80186;BME280;69904;52.122;5.422;2023-10-19T12:05:52;99168.66;;;16.98;85.19
80186;BME280;69904;52.122;5.422;2023-10-19T12:08:22;99160.19;;;16.95;85.72
80186;BME280;69904;52.122;5.422;2023-10-19T12:10:50;99165.16;;;16.88;86.04
80186;BME280;69904;52.122;5.422;2023-10-19T12:13:17;99155.91;;;16.78;85.76
80186;BME280;69904;52.122;5.422;2023-10-19T12:15:43;99164.09;;;16.73;86.02
80186;BME280;69904;52.122;5.422;2023-10-19T12:18:18;99165.75;;;16.69;86.38
80186;BME280;69904;52.122;5.422;2023-10-19T12:20:46;99174.78;;;16.65;86.38
80186;BME280;69904;52.122;5.422;2023-10-19T12:23:14;99169.88;;;16.62;86.50
80186;BME280;69904;52.122;5.422;2023-10-19T12:25:41;99169.59;;;16.58;86.75
80186;BME280;69904;52.122;5.422;2023-10-19T12:28:15;99165.53;;;16.56;86.62
80186;BME280;69904;52.122;5.422;2023-10-19T12:30:42;99157.88;;;16.53;86.55
80186;BME280;69904;52.122;5.422;2023-10-19T12:33:09;99147.84;;;16.48;86.69
80186;BME280;69904;52.122;5.422;2023-10-19T12:35:40;99147.59;;;16.45;86.80
80186;BME280;69904;52.122;5.422;2023-10-19T12:38:18;99141.59;;;16.42;87.32
80186;BME280;69904;52.122;5.422;2023-10-19T12:40:48;99144.56;;;16.41;87.54
80186;BME280;69904;52.122;5.422;2023-10-19T12:43:17;99138.59;;;16.39;87.78
80186;BME280;69904;52.122;5.422;2023-10-19T12:45:45;99142.69;;;16.36;88.06
80186;BME280;69904;52.122;5.422;2023-10-19T12:48:17;99147.63;;;16.34;87.95
80186;BME280;69904;52.122;5.422;2023-10-19T12:50:44;99142.44;;;16.33;88.04
80186;BME280;69904;52.122;5.422;2023-10-19T12:53:10;99148.16;;;16.31;87.95
80186;BME280;69904;52.122;5.422;2023-10-19T12:55:37;99135.63;;;16.30;88.45
80186;BME280;69904;52.122;5.422;2023-10-19T12:58:04;99133.19;;;16.29;88.39
80186;BME280;69904;52.122;5.422;2023-10-19T13:00:36;99131.00;;;16.26;88.39
80186;BME280;69904;52.122;5.422;2023-10-19T13:03:07;99131.28;;;16.24;88.37
80186;BME280;69904;52.122;5.422;2023-10-19T13:05:37;99140.00;;;16.21;88.52
80186;BME280;69904;52.122;5.422;2023-10-19T13:08:10;99142.47;;;16.23;88.14
80186;BME280;69904;52.122;5.422;2023-10-19T13:10:41;99155.78;;;16.19;87.97
80186;BME280;69904;52.122;5.422;2023-10-19T13:13:10;99146.81;;;16.19;87.76
80186;BME280;69904;52.122;5.422;2023-10-19T13:15:39;99147.09;;;16.17;88.00
80186;BME280;69904;52.122;5.422;2023-10-19T13:18:07;99148.44;;;16.15;87.94
80186;BME280;69904;52.122;5.422;2023-10-19T13:20:37;99140.03;;;16.11;88.94
80186;BME280;69904;52.122;5.422;2023-10-19T13:23:05;99129.97;;;16.07;89.05
80186;BME280;69904;52.122;5.422;2023-10-19T13:25:33;99131.63;;;16.03;89.54
80186;BME280;69904;52.122;5.422;2023-10-19T13:28:23;99135.16;;;15.98;89.94